Ontario, Oregon
Current Conditions -  °F | °C
As of 2:53 AM on Sunday 23 Nov 2014 (Local Time) from KONO Reporting Station
Clear Clear  
Wind Chill: 31°   Ceiling: Unl
Heat Index: 35°   Visibility: 10mi
Dew Point: 24°   Wind: 5mph
Humidity: 64%   Direction: 310°NW
Pressure: 30.21"   Gusts: NA
Location:  44.03°N, 116.96°W
Report Text: KONO 230953Z AUTO 31004KT 10SM CLR 02/M04 A3021 RMK AO2 SLP248 T00171044
Loading
Personal Weather Stations






























Interactive Weather Map New forecast layout! Learn more

10-Day Weather Forecast

Advertisements
Track Severe Weather on mobile